Missoula, MT

5:19 PM MDT on July 20, 2017 (GMT -0600)
Franklin to the Fort | | Change Station
Active Advisory: Fire Weather Warning

Elev 3200 ft 46.86 °N, 114.02 °W | Updated 1 second ago

Clear
Clear
87.0 °F
Feels Like 84 °F
N
6.0
Wind Variable Wind from NW
Gusts 11.0 mph

Today
High -- | Low -- °F
--% Chance of Precip.
Yesterday
High -- | Low -- °F
Precip. -- in
Pressure 29.86 in
Visibility 10.0 miles
Clouds Scattered Clouds 11000 ft
Heat Index 84 °F
Dew Point 40 °F
Humidity 19%
Rainfall 0.00 in
Snow Depth Not available.
6:02 AM 9:21 PM
Waning Crescent, 9% visible
METAR KMSO 202253Z 30020G25KT 10SM SCT110 32/01 A2994 RMK AO2 SLP111 T03170011
Pressure 29.86 in
Visibility 10.0 miles
Clouds Scattered Clouds 11000 ft
Heat Index 84 °F
Dew Point 40 °F
Humidity 19%
Rainfall 0.00 in
Snow Depth Not available.
6:02 AM 9:21 PM
Waning Crescent, 9% visible
METAR KMSO 202253Z 30020G25KT 10SM SCT110 32/01 A2994 RMK AO2 SLP111 T03170011

Get Your Daily Forecast Email!

Thanks for signing up!

Be on the lookout for a verification email in your inbox.

You'll start receiving severe weather alerts in your inbox..

×

10-Day Weather Forecast

Almanac

Astronomy

Jul. 20, 2017 Rise Set
Actual Time
Civil Twilight
Nautical Twilight
Astronomical Twilight
Moon
Length of Visible Light
Length of Day
Tomorrow will be .
, % of the Moon is Illuminated

Today's Extremes

State Highs State Lows

Community

WunderPhotos

Category 6

Welcome to Category 6. This is the collective home for Weather Underground's featured writeups by Dr. Jeff Masters (right), Bob Henson (left), Chris Burt, and other regular contributors.

Nearby

Air Quality

  Air Quality AQ Index Pollutant
Not available.

Snow Depth

Station Depth Elevation

Earthquake Activity

City Distance Mag. Time & Date
Minimum magnitude displayed is 2.5.

Coastal Water Temperatures

Place Temperature

Stations

Nearby Weather Stations

Station Location Temp. Windchill Dew Point Humidity Wind Precip. Elev Updated Type
                   

Watches & Warnings

Fire Weather Warning
Issued: 8:02 AM MDT Jul. 20, 2017 – National Weather Service

... Red flag warning in effect from noon today to 9 PM MDT this
evening...

* affected area: fire zone 108 (east lolo).

* Winds: west 15 to 25 mph with gusts to 35 mph.

* Minimum humidities: 13 to 18 percent.